Terminal Aerodrome Forecast
Issued by NWS

Home | Current Version | Previous Version | Text Only | Print | Product List | Glossary On
Versions: 1 2 3 4 5 6 7 8 9 10 11 12 13
000
FTUS45 KABQ 271123
TAFLVS
TAF
KLVS 271123Z 2712/2812 VRB05KT P6SM FEW150
     FM271800 19008KT P6SM SCT100
     FM272000 12010KT P6SM VCSH BKN100
     FM280000 15010KT P6SM FEW150=

USA.gov is the U.S. government's official web portal to all federal, state and local government web resources and services.